Townline, New York
Current Conditions -  °F | °C
As of 5:54 PM on Monday 24 Nov 2014 (Local Time) from KBUF Reporting Station
Scattered Clouds Scattered Clouds  
Wind Chill: 40°   Ceiling: Unl
Heat Index: 48°   Visibility: 10mi
Dew Point: 40°   Wind: 24mph
Humidity: 74%   Direction: 210°SSW
Pressure: 29.47"   Gusts: 36mph
Location:  42.8931°N, 78.5076°W
Report Text: KBUF 242254Z 21021G31KT 10SM FEW013 FEW025 SCT055 09/04 A2947 RMK AO2 PK WND 24043/2207 SLP980 T00890044 $
Loading
Personal Weather Stations






























Interactive Weather Map New forecast layout! Learn more

10-Day Weather Forecast

Advertisements
Track Severe Weather on mobile